sensor_id;sensor_type;location;lat;lon;timestamp;pressure;altitude;pressure_sealevel;temperature;humidity
53526;BME280;40551;50.478;19.378;2023-07-31T00:00:30;97516.39;;;16.58;87.98
53526;BME280;40551;50.478;19.378;2023-07-31T00:03:20;97515.67;;;16.58;87.96
53526;BME280;40551;50.478;19.378;2023-07-31T00:05:52;97516.49;;;16.54;87.93
53526;BME280;40551;50.478;19.378;2023-07-31T00:08:24;97514.45;;;16.52;87.94
53526;BME280;40551;50.478;19.378;2023-07-31T00:10:55;97521.63;;;16.51;87.93
53526;BME280;40551;50.478;19.378;2023-07-31T00:13:27;97528.17;;;16.49;87.89
53526;BME280;40551;50.478;19.378;2023-07-31T00:15:59;97531.75;;;16.47;87.64
53526;BME280;40551;50.478;19.378;2023-07-31T00:18:31;97533.20;;;16.45;87.68
53526;BME280;40551;50.478;19.378;2023-07-31T00:21:02;97532.65;;;16.42;87.62
53526;BME280;40551;50.478;19.378;2023-07-31T00:23:34;97539.73;;;16.40;87.72
53526;BME280;40551;50.478;19.378;2023-07-31T00:26:05;97538.84;;;16.37;87.67
53526;BME280;40551;50.478;19.378;2023-07-31T00:28:37;97537.23;;;16.33;87.79
53526;BME280;40551;50.478;19.378;2023-07-31T00:31:09;97538.36;;;16.29;87.96
53526;BME280;40551;50.478;19.378;2023-07-31T00:33:40;97538.52;;;16.24;88.20
53526;BME280;40551;50.478;19.378;2023-07-31T00:36:12;97541.60;;;16.19;88.33
53526;BME280;40551;50.478;19.378;2023-07-31T00:38:46;97543.11;;;16.15;88.37
53526;BME280;40551;50.478;19.378;2023-07-31T00:41:17;97549.60;;;16.12;88.63
53526;BME280;40551;50.478;19.378;2023-07-31T00:43:49;97549.83;;;16.09;88.79
53526;BME280;40551;50.478;19.378;2023-07-31T00:46:21;97552.67;;;16.06;89.11
53526;BME280;40551;50.478;19.378;2023-07-31T00:48:52;97555.27;;;16.03;89.35
53526;BME280;40551;50.478;19.378;2023-07-31T00:51:24;97552.94;;;16.02;89.43
53526;BME280;40551;50.478;19.378;2023-07-31T00:53:56;97554.73;;;16.00;89.57
53526;BME280;40551;50.478;19.378;2023-07-31T00:56:30;97553.69;;;15.98;89.77
53526;BME280;40551;50.478;19.378;2023-07-31T00:59:04;97552.69;;;15.96;89.77
53526;BME280;40551;50.478;19.378;2023-07-31T01:01:36;97552.60;;;15.95;89.87
53526;BME280;40551;50.478;19.378;2023-07-31T01:04:08;97553.52;;;15.93;89.60
53526;BME280;40551;50.478;19.378;2023-07-31T01:06:48;97554.23;;;15.92;89.53
53526;BME280;40551;50.478;19.378;2023-07-31T01:09:25;97555.98;;;15.90;89.69
53526;BME280;40551;50.478;19.378;2023-07-31T01:12:02;97555.35;;;15.88;89.66
53526;BME280;40551;50.478;19.378;2023-07-31T01:14:35;97552.50;;;15.87;89.65
53526;BME280;40551;50.478;19.378;2023-07-31T01:17:07;97554.96;;;15.87;89.66
53526;BME280;40551;50.478;19.378;2023-07-31T01:19:38;97553.16;;;15.88;89.61
53526;BME280;40551;50.478;19.378;2023-07-31T01:22:33;97558.97;;;15.86;89.50
53526;BME280;40551;50.478;19.378;2023-07-31T01:25:20;97557.92;;;15.86;89.58
53526;BME280;40551;50.478;19.378;2023-07-31T01:28:01;97559.23;;;15.85;89.62
53526;BME280;40551;50.478;19.378;2023-07-31T01:30:39;97558.80;;;15.83;89.69
53526;BME280;40551;50.478;19.378;2023-07-31T01:33:13;97565.10;;;15.81;89.54
53526;BME280;40551;50.478;19.378;2023-07-31T01:35:46;97565.00;;;15.79;89.80
53526;BME280;40551;50.478;19.378;2023-07-31T01:38:22;97567.20;;;15.78;89.71
53526;BME280;40551;50.478;19.378;2023-07-31T01:40:54;97568.33;;;15.77;89.75
53526;BME280;40551;50.478;19.378;2023-07-31T01:43:28;97570.15;;;15.76;89.67
53526;BME280;40551;50.478;19.378;2023-07-31T01:46:00;97571.80;;;15.74;89.62
53526;BME280;40551;50.478;19.378;2023-07-31T01:48:31;97572.22;;;15.72;89.59
53526;BME280;40551;50.478;19.378;2023-07-31T01:51:06;97572.06;;;15.69;89.62
53526;BME280;40551;50.478;19.378;2023-07-31T01:53:39;97570.30;;;15.66;89.63
53526;BME280;40551;50.478;19.378;2023-07-31T01:56:11;97571.27;;;15.63;89.56
53526;BME280;40551;50.478;19.378;2023-07-31T01:58:42;97576.25;;;15.61;89.48
53526;BME280;40551;50.478;19.378;2023-07-31T02:01:14;97579.19;;;15.58;89.62
53526;BME280;40551;50.478;19.378;2023-07-31T02:03:46;97580.77;;;15.57;89.37
53526;BME280;40551;50.478;19.378;2023-07-31T02:06:18;97580.36;;;15.56;89.63
53526;BME280;40551;50.478;19.378;2023-07-31T02:08:49;97585.91;;;15.53;89.51
53526;BME280;40551;50.478;19.378;2023-07-31T02:11:21;97587.77;;;15.50;89.51
53526;BME280;40551;50.478;19.378;2023-07-31T02:13:53;97584.83;;;15.49;89.60
53526;BME280;40551;50.478;19.378;2023-07-31T02:16:25;97592.67;;;15.47;89.70
53526;BME280;40551;50.478;19.378;2023-07-31T02:18:56;97594.64;;;15.45;89.89
53526;BME280;40551;50.478;19.378;2023-07-31T02:21:29;97593.04;;;15.44;89.77
53526;BME280;40551;50.478;19.378;2023-07-31T02:24:00;97599.14;;;15.42;89.65
53526;BME280;40551;50.478;19.378;2023-07-31T02:26:32;97599.67;;;15.41;89.70
53526;BME280;40551;50.478;19.378;2023-07-31T02:29:04;97597.98;;;15.39;89.90
53526;BME280;40551;50.478;19.378;2023-07-31T02:31:35;97601.69;;;15.38;90.01
53526;BME280;40551;50.478;19.378;2023-07-31T02:34:08;97603.52;;;15.39;90.04
53526;BME280;40551;50.478;19.378;2023-07-31T02:36:40;97607.52;;;15.39;90.26
53526;BME280;40551;50.478;19.378;2023-07-31T02:39:12;97615.19;;;15.40;90.31
53526;BME280;40551;50.478;19.378;2023-07-31T02:41:44;97624.45;;;15.41;90.18
53526;BME280;40551;50.478;19.378;2023-07-31T02:44:16;97625.75;;;15.42;90.10
53526;BME280;40551;50.478;19.378;2023-07-31T02:46:48;97630.41;;;15.41;89.98
53526;BME280;40551;50.478;19.378;2023-07-31T02:49:20;97630.80;;;15.41;90.12
53526;BME280;40551;50.478;19.378;2023-07-31T02:51:51;97623.17;;;15.40;90.12
53526;BME280;40551;50.478;19.378;2023-07-31T02:54:23;97626.82;;;15.37;90.15
53526;BME280;40551;50.478;19.378;2023-07-31T02:56:55;97626.17;;;15.37;90.43
53526;BME280;40551;50.478;19.378;2023-07-31T02:59:27;97624.56;;;15.37;90.41
53526;BME280;40551;50.478;19.378;2023-07-31T03:01:59;97621.71;;;15.38;90.33
53526;BME280;40551;50.478;19.378;2023-07-31T03:04:31;97624.76;;;15.37;90.56
53526;BME280;40551;50.478;19.378;2023-07-31T03:07:03;97627.81;;;15.36;90.41
53526;BME280;40551;50.478;19.378;2023-07-31T03:09:34;97630.16;;;15.37;90.54
53526;BME280;40551;50.478;19.378;2023-07-31T03:12:07;97633.25;;;15.39;90.65
53526;BME280;40551;50.478;19.378;2023-07-31T03:14:39;97636.57;;;15.40;90.62
53526;BME280;40551;50.478;19.378;2023-07-31T03:17:11;97637.75;;;15.43;90.79
53526;BME280;40551;50.478;19.378;2023-07-31T03:19:43;97642.55;;;15.43;90.76
53526;BME280;40551;50.478;19.378;2023-07-31T03:22:14;97648.23;;;15.44;91.06
53526;BME280;40551;50.478;19.378;2023-07-31T03:24:46;97647.95;;;15.45;90.91
53526;BME280;40551;50.478;19.378;2023-07-31T03:27:17;97646.52;;;15.47;91.06
53526;BME280;40551;50.478;19.378;2023-07-31T03:29:50;97645.23;;;15.47;90.96
53526;BME280;40551;50.478;19.378;2023-07-31T03:32:22;97644.59;;;15.48;91.18
53526;BME280;40551;50.478;19.378;2023-07-31T03:34:54;97647.63;;;15.49;91.27
53526;BME280;40551;50.478;19.378;2023-07-31T03:37:26;97644.16;;;15.51;91.34
53526;BME280;40551;50.478;19.378;2023-07-31T03:39:57;97642.84;;;15.51;91.29
53526;BME280;40551;50.478;19.378;2023-07-31T03:42:29;97642.27;;;15.52;91.24
53526;BME280;40551;50.478;19.378;2023-07-31T03:45:00;97641.14;;;15.53;91.44
53526;BME280;40551;50.478;19.378;2023-07-31T03:47:32;97642.80;;;15.53;91.58
53526;BME280;40551;50.478;19.378;2023-07-31T03:50:04;97642.05;;;15.56;91.70
53526;BME280;40551;50.478;19.378;2023-07-31T03:52:36;97643.23;;;15.58;91.75
53526;BME280;40551;50.478;19.378;2023-07-31T03:55:09;97645.70;;;15.59;91.94
53526;BME280;40551;50.478;19.378;2023-07-31T03:57:40;97642.54;;;15.61;91.75
53526;BME280;40551;50.478;19.378;2023-07-31T04:00:13;97645.77;;;15.63;91.86
53526;BME280;40551;50.478;19.378;2023-07-31T04:02:45;97649.76;;;15.65;91.84
53526;BME280;40551;50.478;19.378;2023-07-31T04:05:17;97657.20;;;15.67;92.06
53526;BME280;40551;50.478;19.378;2023-07-31T04:07:48;97658.72;;;15.69;92.10
53526;BME280;40551;50.478;19.378;2023-07-31T04:10:20;97655.41;;;15.71;92.05
53526;BME280;40551;50.478;19.378;2023-07-31T04:12:52;97653.54;;;15.73;92.15
53526;BME280;40551;50.478;19.378;2023-07-31T04:15:24;97656.77;;;15.76;91.95
53526;BME280;40551;50.478;19.378;2023-07-31T04:17:55;97659.23;;;15.77;91.95
53526;BME280;40551;50.478;19.378;2023-07-31T04:20:27;97658.52;;;15.79;91.98
53526;BME280;40551;50.478;19.378;2023-07-31T04:22:59;97658.63;;;15.80;91.83
53526;BME280;40551;50.478;19.378;2023-07-31T04:25:30;97659.38;;;15.81;92.12
53526;BME280;40551;50.478;19.378;2023-07-31T04:28:02;97660.16;;;15.82;91.92
53526;BME280;40551;50.478;19.378;2023-07-31T04:30:34;97656.66;;;15.80;91.75
53526;BME280;40551;50.478;19.378;2023-07-31T04:33:06;97657.84;;;15.81;91.97
53526;BME280;40551;50.478;19.378;2023-07-31T04:35:38;97659.30;;;15.81;91.99
53526;BME280;40551;50.478;19.378;2023-07-31T04:38:10;97657.63;;;15.82;92.02
53526;BME280;40551;50.478;19.378;2023-07-31T04:40:42;97659.92;;;15.84;92.07
53526;BME280;40551;50.478;19.378;2023-07-31T04:43:13;97656.29;;;15.86;91.96
53526;BME280;40551;50.478;19.378;2023-07-31T04:45:47;97659.45;;;15.89;92.21
53526;BME280;40551;50.478;19.378;2023-07-31T04:48:20;97661.55;;;15.94;92.47
53526;BME280;40551;50.478;19.378;2023-07-31T04:50:51;97666.48;;;15.98;92.24
53526;BME280;40551;50.478;19.378;2023-07-31T04:53:23;97671.55;;;16.02;92.04
53526;BME280;40551;50.478;19.378;2023-07-31T04:55:55;97677.34;;;16.05;92.19
53526;BME280;40551;50.478;19.378;2023-07-31T04:58:26;97679.54;;;16.08;92.18
53526;BME280;40551;50.478;19.378;2023-07-31T05:00:58;97680.42;;;16.13;91.99
53526;BME280;40551;50.478;19.378;2023-07-31T05:03:29;97679.09;;;16.17;92.22
53526;BME280;40551;50.478;19.378;2023-07-31T05:06:01;97676.95;;;16.22;92.10
53526;BME280;40551;50.478;19.378;2023-07-31T05:08:33;97672.20;;;16.27;92.04
53526;BME280;40551;50.478;19.378;2023-07-31T05:11:05;97670.02;;;16.29;91.92
53526;BME280;40551;50.478;19.378;2023-07-31T05:13:36;97663.98;;;16.33;91.69
53526;BME280;40551;50.478;19.378;2023-07-31T05:16:08;97665.80;;;16.38;91.37
53526;BME280;40551;50.478;19.378;2023-07-31T05:18:40;97665.41;;;16.43;91.45
53526;BME280;40551;50.478;19.378;2023-07-31T05:21:11;97670.30;;;16.49;91.58
53526;BME280;40551;50.478;19.378;2023-07-31T05:23:43;97671.69;;;16.57;91.95
53526;BME280;40551;50.478;19.378;2023-07-31T05:26:15;97672.29;;;16.67;91.89
53526;BME280;40551;50.478;19.378;2023-07-31T05:28:48;97678.33;;;16.77;92.00
53526;BME280;40551;50.478;19.378;2023-07-31T05:31:20;97678.85;;;16.86;91.48
53526;BME280;40551;50.478;19.378;2023-07-31T05:33:52;97681.70;;;16.97;91.74
53526;BME280;40551;50.478;19.378;2023-07-31T05:36:24;97684.89;;;17.15;91.87
53526;BME280;40551;50.478;19.378;2023-07-31T05:38:56;97687.02;;;17.37;91.95
53526;BME280;40551;50.478;19.378;2023-07-31T05:41:28;97686.17;;;17.57;91.95
53526;BME280;40551;50.478;19.378;2023-07-31T05:43:59;97683.09;;;17.80;91.28
53526;BME280;40551;50.478;19.378;2023-07-31T05:46:31;97689.45;;;17.96;90.50
53526;BME280;40551;50.478;19.378;2023-07-31T05:49:03;97691.49;;;18.11;90.00
53526;BME280;40551;50.478;19.378;2023-07-31T05:51:34;97692.26;;;18.22;89.50
53526;BME280;40551;50.478;19.378;2023-07-31T05:54:06;97693.53;;;18.29;89.05
53526;BME280;40551;50.478;19.378;2023-07-31T05:56:38;97692.24;;;18.33;88.89
53526;BME280;40551;50.478;19.378;2023-07-31T05:59:12;97695.52;;;18.43;88.56
53526;BME280;40551;50.478;19.378;2023-07-31T06:01:43;97699.41;;;18.47;87.67
53526;BME280;40551;50.478;19.378;2023-07-31T06:04:15;97701.82;;;18.49;87.02
53526;BME280;40551;50.478;19.378;2023-07-31T06:06:47;97700.43;;;18.51;87.06
53526;BME280;40551;50.478;19.378;2023-07-31T06:09:19;97702.06;;;18.57;86.81
53526;BME280;40551;50.478;19.378;2023-07-31T06:11:51;97702.66;;;18.66;86.77
53526;BME280;40551;50.478;19.378;2023-07-31T06:14:23;97700.71;;;18.73;85.88
53526;BME280;40551;50.478;19.378;2023-07-31T06:16:54;97697.30;;;18.82;85.31
53526;BME280;40551;50.478;19.378;2023-07-31T06:19:26;97690.16;;;18.91;85.26
53526;BME280;40551;50.478;19.378;2023-07-31T06:21:58;97684.61;;;19.00;84.78
53526;BME280;40551;50.478;19.378;2023-07-31T06:24:29;97684.82;;;19.11;85.02
53526;BME280;40551;50.478;19.378;2023-07-31T06:27:01;97686.38;;;19.23;84.72
53526;BME280;40551;50.478;19.378;2023-07-31T06:29:34;97683.80;;;19.35;84.77
53526;BME280;40551;50.478;19.378;2023-07-31T06:32:07;97680.74;;;19.48;83.67
53526;BME280;40551;50.478;19.378;2023-07-31T06:34:39;97680.62;;;19.63;83.17
53526;BME280;40551;50.478;19.378;2023-07-31T06:37:10;97677.45;;;19.68;81.47
53526;BME280;40551;50.478;19.378;2023-07-31T06:39:42;97675.40;;;19.72;81.26
53526;BME280;40551;50.478;19.378;2023-07-31T06:42:14;97678.80;;;19.79;81.42
53526;BME280;40551;50.478;19.378;2023-07-31T06:44:45;97676.70;;;19.88;81.23
53526;BME280;40551;50.478;19.378;2023-07-31T06:47:17;97681.39;;;19.93;81.23
53526;BME280;40551;50.478;19.378;2023-07-31T06:49:49;97681.58;;;19.98;80.71
53526;BME280;40551;50.478;19.378;2023-07-31T06:52:20;97680.70;;;20.05;79.85
53526;BME280;40551;50.478;19.378;2023-07-31T06:55:03;97679.09;;;20.12;79.53
53526;BME280;40551;50.478;19.378;2023-07-31T06:57:35;97681.73;;;20.20;79.62
53526;BME280;40551;50.478;19.378;2023-07-31T07:00:09;97680.73;;;20.27;79.53
53526;BME280;40551;50.478;19.378;2023-07-31T07:02:41;97680.58;;;20.34;79.32
53526;BME280;40551;50.478;19.378;2023-07-31T07:05:13;97686.85;;;20.47;79.05
53526;BME280;40551;50.478;19.378;2023-07-31T07:07:45;97687.14;;;20.58;77.93
53526;BME280;40551;50.478;19.378;2023-07-31T07:10:17;97686.64;;;20.70;77.47
53526;BME280;40551;50.478;19.378;2023-07-31T07:12:48;97687.14;;;20.78;77.34
53526;BME280;40551;50.478;19.378;2023-07-31T07:15:20;97691.69;;;20.92;77.06
53526;BME280;40551;50.478;19.378;2023-07-31T07:17:52;97692.53;;;20.96;76.11
53526;BME280;40551;50.478;19.378;2023-07-31T07:20:23;97689.10;;;21.01;75.93
53526;BME280;40551;50.478;19.378;2023-07-31T07:22:55;97689.05;;;21.04;74.84
53526;BME280;40551;50.478;19.378;2023-07-31T07:25:26;97687.34;;;21.10;75.36
53526;BME280;40551;50.478;19.378;2023-07-31T07:27:58;97690.05;;;21.18;75.07
53526;BME280;40551;50.478;19.378;2023-07-31T07:30:30;97690.37;;;21.25;74.15
53526;BME280;40551;50.478;19.378;2023-07-31T07:33:02;97687.41;;;21.32;73.43
53526;BME280;40551;50.478;19.378;2023-07-31T07:35:35;97687.54;;;21.41;72.99
53526;BME280;40551;50.478;19.378;2023-07-31T07:38:07;97686.37;;;21.50;73.47
53526;BME280;40551;50.478;19.378;2023-07-31T07:40:41;97690.20;;;21.62;73.15
53526;BME280;40551;50.478;19.378;2023-07-31T07:43:12;97690.36;;;21.73;72.52
53526;BME280;40551;50.478;19.378;2023-07-31T07:45:44;97688.11;;;21.83;71.85
53526;BME280;40551;50.478;19.378;2023-07-31T07:48:15;97685.55;;;21.89;70.13
53526;BME280;40551;50.478;19.378;2023-07-31T07:50:47;97686.52;;;21.84;69.29
53526;BME280;40551;50.478;19.378;2023-07-31T07:53:20;97692.86;;;21.89;69.43
53526;BME280;40551;50.478;19.378;2023-07-31T07:55:51;97696.39;;;21.92;69.16
53526;BME280;40551;50.478;19.378;2023-07-31T07:58:23;97695.01;;;21.99;69.02
53526;BME280;40551;50.478;19.378;2023-07-31T08:00:55;97691.38;;;22.06;68.58
53526;BME280;40551;50.478;19.378;2023-07-31T08:03:26;97696.57;;;22.05;68.04
53526;BME280;40551;50.478;19.378;2023-07-31T08:06:00;97694.63;;;22.08;67.83
53526;BME280;40551;50.478;19.378;2023-07-31T08:08:32;97698.07;;;22.12;67.59
53526;BME280;40551;50.478;19.378;2023-07-31T08:11:03;97694.54;;;22.17;67.09
53526;BME280;40551;50.478;19.378;2023-07-31T08:13:35;97697.89;;;22.16;66.63
53526;BME280;40551;50.478;19.378;2023-07-31T08:16:08;97696.84;;;22.12;66.12
53526;BME280;40551;50.478;19.378;2023-07-31T08:18:40;97697.56;;;22.08;66.11
53526;BME280;40551;50.478;19.378;2023-07-31T08:21:13;97697.48;;;22.10;66.66
53526;BME280;40551;50.478;19.378;2023-07-31T08:23:45;97699.85;;;22.15;66.30
53526;BME280;40551;50.478;19.378;2023-07-31T08:26:18;97700.11;;;22.23;66.79
53526;BME280;40551;50.478;19.378;2023-07-31T08:28:50;97700.48;;;22.29;65.89
53526;BME280;40551;50.478;19.378;2023-07-31T08:31:21;97699.77;;;22.33;65.75
53526;BME280;40551;50.478;19.378;2023-07-31T08:33:53;97703.26;;;22.36;65.00
53526;BME280;40551;50.478;19.378;2023-07-31T08:36:27;97703.23;;;22.30;64.94
53526;BME280;40551;50.478;19.378;2023-07-31T08:39:04;97704.57;;;22.34;64.96
53526;BME280;40551;50.478;19.378;2023-07-31T08:41:39;97704.66;;;22.38;65.07
53526;BME280;40551;50.478;19.378;2023-07-31T08:44:11;97703.80;;;22.39;64.85
53526;BME280;40551;50.478;19.378;2023-07-31T08:46:44;97709.41;;;22.35;64.53
53526;BME280;40551;50.478;19.378;2023-07-31T08:49:18;97710.44;;;22.35;65.09
53526;BME280;40551;50.478;19.378;2023-07-31T08:51:53;97710.86;;;22.38;64.45
53526;BME280;40551;50.478;19.378;2023-07-31T08:54:25;97705.48;;;22.44;63.95
53526;BME280;40551;50.478;19.378;2023-07-31T08:57:01;97701.20;;;22.56;63.81
53526;BME280;40551;50.478;19.378;2023-07-31T08:59:35;97694.29;;;22.64;63.15
53526;BME280;40551;50.478;19.378;2023-07-31T09:02:09;97692.21;;;22.73;63.47
53526;BME280;40551;50.478;19.378;2023-07-31T09:04:41;97692.35;;;22.80;63.09
53526;BME280;40551;50.478;19.378;2023-07-31T09:07:13;97691.06;;;22.79;62.91
53526;BME280;40551;50.478;19.378;2023-07-31T09:09:47;97695.22;;;22.79;62.11
53526;BME280;40551;50.478;19.378;2023-07-31T09:12:19;97688.48;;;22.86;61.91
53526;BME280;40551;50.478;19.378;2023-07-31T09:14:50;97687.10;;;22.94;61.96
53526;BME280;40551;50.478;19.378;2023-07-31T09:17:31;97689.35;;;23.05;61.60
53526;BME280;40551;50.478;19.378;2023-07-31T09:20:16;97682.73;;;23.14;60.85
53526;BME280;40551;50.478;19.378;2023-07-31T09:22:48;97683.07;;;23.13;59.48
53526;BME280;40551;50.478;19.378;2023-07-31T09:25:22;97678.63;;;23.07;59.56
53526;BME280;40551;50.478;19.378;2023-07-31T09:27:58;97675.38;;;23.14;59.88
53526;BME280;40551;50.478;19.378;2023-07-31T09:30:30;97677.77;;;23.24;60.19
53526;BME280;40551;50.478;19.378;2023-07-31T09:33:05;97679.23;;;23.27;60.79
53526;BME280;40551;50.478;19.378;2023-07-31T09:35:38;97678.23;;;23.26;60.16
53526;BME280;40551;50.478;19.378;2023-07-31T09:38:12;97678.31;;;23.18;59.89
53526;BME280;40551;50.478;19.378;2023-07-31T09:40:46;97680.61;;;23.20;60.65
53526;BME280;40551;50.478;19.378;2023-07-31T09:43:20;97677.09;;;23.29;60.14
53526;BME280;40551;50.478;19.378;2023-07-31T09:45:56;97677.70;;;23.37;59.70
53526;BME280;40551;50.478;19.378;2023-07-31T09:48:28;97672.65;;;23.42;58.83
53526;BME280;40551;50.478;19.378;2023-07-31T09:51:05;97669.60;;;23.45;58.58
53526;BME280;40551;50.478;19.378;2023-07-31T09:53:37;97664.23;;;23.58;58.89
53526;BME280;40551;50.478;19.378;2023-07-31T09:56:08;97665.67;;;23.70;58.81
53526;BME280;40551;50.478;19.378;2023-07-31T09:58:40;97661.82;;;23.82;58.17
53526;BME280;40551;50.478;19.378;2023-07-31T10:01:12;97663.73;;;23.83;57.65
53526;BME280;40551;50.478;19.378;2023-07-31T10:03:46;97668.21;;;23.71;58.09
53526;BME280;40551;50.478;19.378;2023-07-31T10:06:18;97667.63;;;23.56;58.26
53526;BME280;40551;50.478;19.378;2023-07-31T10:08:52;97668.42;;;23.48;57.83
53526;BME280;40551;50.478;19.378;2023-07-31T10:11:27;97665.31;;;23.42;57.30
53526;BME280;40551;50.478;19.378;2023-07-31T10:13:59;97663.71;;;23.27;58.05
53526;BME280;40551;50.478;19.378;2023-07-31T10:16:31;97664.05;;;23.15;57.56
53526;BME280;40551;50.478;19.378;2023-07-31T10:19:03;97661.56;;;23.04;58.58
53526;BME280;40551;50.478;19.378;2023-07-31T10:21:36;97664.42;;;22.92;59.41
53526;BME280;40551;50.478;19.378;2023-07-31T10:24:09;97662.89;;;22.77;59.84
53526;BME280;40551;50.478;19.378;2023-07-31T10:26:42;97667.74;;;22.66;59.60
53526;BME280;40551;50.478;19.378;2023-07-31T10:29:16;97665.05;;;22.60;58.77
53526;BME280;40551;50.478;19.378;2023-07-31T10:31:49;97670.34;;;22.54;59.51
53526;BME280;40551;50.478;19.378;2023-07-31T10:34:21;97666.73;;;22.54;59.48
53526;BME280;40551;50.478;19.378;2023-07-31T10:37:23;97661.18;;;22.60;59.35
53526;BME280;40551;50.478;19.378;2023-07-31T10:40:00;97646.88;;;22.72;59.41
53526;BME280;40551;50.478;19.378;2023-07-31T10:42:34;97638.68;;;22.90;58.72
53526;BME280;40551;50.478;19.378;2023-07-31T10:45:08;97634.19;;;23.01;57.38
53526;BME280;40551;50.478;19.378;2023-07-31T10:47:43;97629.65;;;23.01;57.87
53526;BME280;40551;50.478;19.378;2023-07-31T10:50:18;97639.18;;;22.99;57.76
53526;BME280;40551;50.478;19.378;2023-07-31T10:52:52;97635.21;;;22.95;57.65
53526;BME280;40551;50.478;19.378;2023-07-31T10:55:29;97631.93;;;22.98;57.56
53526;BME280;40551;50.478;19.378;2023-07-31T10:58:08;97629.20;;;22.96;57.49
53526;BME280;40551;50.478;19.378;2023-07-31T11:00:42;97619.16;;;22.95;56.77
53526;BME280;40551;50.478;19.378;2023-07-31T11:03:16;97624.32;;;23.00;57.31
53526;BME280;40551;50.478;19.378;2023-07-31T11:05:59;97624.37;;;23.11;56.46
53526;BME280;40551;50.478;19.378;2023-07-31T11:08:35;97620.80;;;23.19;56.06
53526;BME280;40551;50.478;19.378;2023-07-31T11:11:08;97619.77;;;23.31;56.55
53526;BME280;40551;50.478;19.378;2023-07-31T11:13:44;97616.44;;;23.47;56.14
53526;BME280;40551;50.478;19.378;2023-07-31T11:16:21;97617.00;;;23.60;56.26
53526;BME280;40551;50.478;19.378;2023-07-31T11:18:53;97618.25;;;23.68;55.90
53526;BME280;40551;50.478;19.378;2023-07-31T11:21:26;97616.66;;;23.68;56.04
53526;BME280;40551;50.478;19.378;2023-07-31T11:23:59;97615.48;;;23.68;54.99
53526;BME280;40551;50.478;19.378;2023-07-31T11:26:31;97611.57;;;23.78;55.17
53526;BME280;40551;50.478;19.378;2023-07-31T11:29:12;97604.68;;;23.91;55.20
53526;BME280;40551;50.478;19.378;2023-07-31T11:31:45;97601.92;;;24.00;55.22
53526;BME280;40551;50.478;19.378;2023-07-31T11:34:17;97605.98;;;23.98;54.27
53526;BME280;40551;50.478;19.378;2023-07-31T11:36:57;97609.18;;;23.96;54.50
53526;BME280;40551;50.478;19.378;2023-07-31T11:39:29;97607.70;;;24.05;53.91
53526;BME280;40551;50.478;19.378;2023-07-31T11:42:01;97603.11;;;24.06;53.45
53526;BME280;40551;50.478;19.378;2023-07-31T11:44:40;97603.96;;;24.04;53.10
53526;BME280;40551;50.478;19.378;2023-07-31T11:47:18;97596.80;;;24.12;53.52
53526;BME280;40551;50.478;19.378;2023-07-31T11:49:51;97603.23;;;24.27;54.18
53526;BME280;40551;50.478;19.378;2023-07-31T11:52:23;97607.91;;;24.20;52.79
53526;BME280;40551;50.478;19.378;2023-07-31T11:54:56;97605.09;;;24.13;52.47
53526;BME280;40551;50.478;19.378;2023-07-31T11:57:29;97597.63;;;24.17;52.96
53526;BME280;40551;50.478;19.378;2023-07-31T12:00:01;97594.27;;;24.24;54.15
53526;BME280;40551;50.478;19.378;2023-07-31T12:02:34;97592.80;;;24.29;53.23
53526;BME280;40551;50.478;19.378;2023-07-31T12:05:06;97588.95;;;24.27;52.12
53526;BME280;40551;50.478;19.378;2023-07-31T12:07:52;97587.52;;;24.17;52.21
53526;BME280;40551;50.478;19.378;2023-07-31T12:10:27;97584.27;;;24.14;53.33
53526;BME280;40551;50.478;19.378;2023-07-31T12:13:03;97580.27;;;24.18;52.51
53526;BME280;40551;50.478;19.378;2023-07-31T12:15:38;97576.28;;;24.11;52.46
53526;BME280;40551;50.478;19.378;2023-07-31T12:18:11;97574.91;;;24.08;52.03
53526;BME280;40551;50.478;19.378;2023-07-31T12:20:45;97576.56;;;24.01;52.79
53526;BME280;40551;50.478;19.378;2023-07-31T12:23:18;97569.73;;;23.98;52.29
53526;BME280;40551;50.478;19.378;2023-07-31T12:26:03;97562.23;;;24.00;52.25
53526;BME280;40551;50.478;19.378;2023-07-31T12:28:38;97558.34;;;23.90;52.94
53526;BME280;40551;50.478;19.378;2023-07-31T12:31:12;97554.66;;;23.82;53.89
53526;BME280;40551;50.478;19.378;2023-07-31T12:33:45;97553.79;;;23.83;54.06
53526;BME280;40551;50.478;19.378;2023-07-31T12:36:18;97547.50;;;23.98;53.77
53526;BME280;40551;50.478;19.378;2023-07-31T12:38:51;97545.04;;;24.19;53.00
53526;BME280;40551;50.478;19.378;2023-07-31T12:41:24;97543.54;;;24.25;52.40
53526;BME280;40551;50.478;19.378;2023-07-31T12:43:57;97545.10;;;24.30;52.15
53526;BME280;40551;50.478;19.378;2023-07-31T12:46:29;97544.79;;;24.31;52.62
53526;BME280;40551;50.478;19.378;2023-07-31T12:49:01;97546.89;;;24.30;52.36
53526;BME280;40551;50.478;19.378;2023-07-31T12:51:33;97546.25;;;24.28;52.13
53526;BME280;40551;50.478;19.378;2023-07-31T12:54:05;97539.23;;;24.19;51.83
53526;BME280;40551;50.478;19.378;2023-07-31T12:56:36;97537.77;;;24.13;52.09
53526;BME280;40551;50.478;19.378;2023-07-31T12:59:08;97537.73;;;24.11;51.74
53526;BME280;40551;50.478;19.378;2023-07-31T13:01:40;97531.84;;;24.09;52.44
53526;BME280;40551;50.478;19.378;2023-07-31T13:04:11;97532.64;;;24.07;51.88
53526;BME280;40551;50.478;19.378;2023-07-31T13:06:44;97528.27;;;24.04;51.96
53526;BME280;40551;50.478;19.378;2023-07-31T13:09:15;97526.91;;;23.99;52.57
53526;BME280;40551;50.478;19.378;2023-07-31T13:11:48;97526.70;;;23.92;52.50
53526;BME280;40551;50.478;19.378;2023-07-31T13:14:19;97525.50;;;23.91;52.58
53526;BME280;40551;50.478;19.378;2023-07-31T13:16:51;97521.45;;;23.95;53.47
53526;BME280;40551;50.478;19.378;2023-07-31T13:19:22;97521.45;;;24.04;53.60